sensor_id;sensor_type;location;lat;lon;timestamp;pressure;altitude;pressure_sealevel;temperature;humidity
13612;BME280;6877;51.436;6.774;2023-12-07T00:00:40;101467.91;;;-1.70;100.00
13612;BME280;6877;51.436;6.774;2023-12-07T00:03:06;101468.56;;;-1.74;100.00
13612;BME280;6877;51.436;6.774;2023-12-07T00:05:33;101462.00;;;-1.67;100.00
13612;BME280;6877;51.436;6.774;2023-12-07T00:07:59;101463.97;;;-1.61;100.00
13612;BME280;6877;51.436;6.774;2023-12-07T00:10:26;101462.09;;;-1.66;100.00
13612;BME280;6877;51.436;6.774;2023-12-07T00:12:52;101471.53;;;-1.65;100.00
13612;BME280;6877;51.436;6.774;2023-12-07T00:15:19;101464.69;;;-1.64;100.00
13612;BME280;6877;51.436;6.774;2023-12-07T00:17:50;101470.34;;;-1.73;100.00
13612;BME280;6877;51.436;6.774;2023-12-07T00:20:17;101472.22;;;-1.69;100.00
13612;BME280;6877;51.436;6.774;2023-12-07T00:22:48;101472.47;;;-1.63;100.00
13612;BME280;6877;51.436;6.774;2023-12-07T00:25:15;101467.47;;;-1.59;100.00
13612;BME280;6877;51.436;6.774;2023-12-07T00:27:47;101463.34;;;-1.56;100.00
13612;BME280;6877;51.436;6.774;2023-12-07T00:30:14;101460.72;;;-1.57;100.00
13612;BME280;6877;51.436;6.774;2023-12-07T00:32:41;101456.22;;;-1.63;100.00
13612;BME280;6877;51.436;6.774;2023-12-07T00:35:16;101456.00;;;-1.68;100.00
13612;BME280;6877;51.436;6.774;2023-12-07T00:37:42;101443.88;;;-1.72;100.00
13612;BME280;6877;51.436;6.774;2023-12-07T00:40:09;101442.84;;;-1.75;100.00
13612;BME280;6877;51.436;6.774;2023-12-07T00:42:41;101451.38;;;-1.76;100.00
13612;BME280;6877;51.436;6.774;2023-12-07T00:45:07;101460.59;;;-1.80;100.00
13612;BME280;6877;51.436;6.774;2023-12-07T00:47:34;101459.94;;;-1.76;100.00
13612;BME280;6877;51.436;6.774;2023-12-07T00:50:01;101454.88;;;-1.74;100.00
13612;BME280;6877;51.436;6.774;2023-12-07T00:52:28;101457.38;;;-1.76;100.00
13612;BME280;6877;51.436;6.774;2023-12-07T00:54:59;101464.22;;;-1.76;100.00
13612;BME280;6877;51.436;6.774;2023-12-07T00:57:26;101467.56;;;-1.77;100.00
13612;BME280;6877;51.436;6.774;2023-12-07T00:59:57;101466.81;;;-1.75;100.00
13612;BME280;6877;51.436;6.774;2023-12-07T01:02:29;101470.47;;;-1.70;100.00
13612;BME280;6877;51.436;6.774;2023-12-07T01:04:55;101464.69;;;-1.64;100.00
13612;BME280;6877;51.436;6.774;2023-12-07T01:07:27;101467.53;;;-1.58;100.00
13612;BME280;6877;51.436;6.774;2023-12-07T01:09:53;101469.47;;;-1.52;100.00
13612;BME280;6877;51.436;6.774;2023-12-07T01:12:20;101465.44;;;-1.47;100.00
13612;BME280;6877;51.436;6.774;2023-12-07T01:14:46;101472.56;;;-1.40;100.00
13612;BME280;6877;51.436;6.774;2023-12-07T01:17:13;101472.78;;;-1.35;100.00
13612;BME280;6877;51.436;6.774;2023-12-07T01:19:45;101471.88;;;-1.36;100.00
13612;BME280;6877;51.436;6.774;2023-12-07T01:22:16;101472.00;;;-1.33;100.00
13612;BME280;6877;51.436;6.774;2023-12-07T01:24:43;101478.25;;;-1.26;100.00
13612;BME280;6877;51.436;6.774;2023-12-07T01:27:10;101471.63;;;-1.21;100.00
13612;BME280;6877;51.436;6.774;2023-12-07T01:29:37;101470.81;;;-1.20;100.00
13612;BME280;6877;51.436;6.774;2023-12-07T01:32:08;101471.97;;;-1.13;100.00
13612;BME280;6877;51.436;6.774;2023-12-07T01:34:35;101467.75;;;-1.11;100.00
13612;BME280;6877;51.436;6.774;2023-12-07T01:37:01;101471.25;;;-1.09;100.00
13612;BME280;6877;51.436;6.774;2023-12-07T01:39:28;101473.88;;;-1.08;100.00
13612;BME280;6877;51.436;6.774;2023-12-07T01:41:54;101467.81;;;-1.10;100.00
13612;BME280;6877;51.436;6.774;2023-12-07T01:44:25;101466.03;;;-1.11;100.00
13612;BME280;6877;51.436;6.774;2023-12-07T01:46:59;101475.41;;;-1.13;100.00
13612;BME280;6877;51.436;6.774;2023-12-07T01:49:25;101478.72;;;-1.15;100.00
13612;BME280;6877;51.436;6.774;2023-12-07T01:51:52;101486.28;;;-1.19;100.00
13612;BME280;6877;51.436;6.774;2023-12-07T01:54:25;101489.69;;;-1.20;100.00
13612;BME280;6877;51.436;6.774;2023-12-07T01:56:56;101493.16;;;-1.18;100.00
13612;BME280;6877;51.436;6.774;2023-12-07T01:59:28;101488.13;;;-1.16;100.00
13612;BME280;6877;51.436;6.774;2023-12-07T02:01:55;101495.28;;;-1.07;100.00
13612;BME280;6877;51.436;6.774;2023-12-07T02:04:21;101494.63;;;-1.03;100.00
13612;BME280;6877;51.436;6.774;2023-12-07T02:06:48;101497.19;;;-1.03;100.00
13612;BME280;6877;51.436;6.774;2023-12-07T02:09:15;101493.81;;;-1.02;100.00
13612;BME280;6877;51.436;6.774;2023-12-07T02:11:41;101495.53;;;-1.01;100.00
13612;BME280;6877;51.436;6.774;2023-12-07T02:14:08;101498.94;;;-1.02;100.00
13612;BME280;6877;51.436;6.774;2023-12-07T02:16:43;101498.94;;;-1.02;100.00
13612;BME280;6877;51.436;6.774;2023-12-07T02:19:23;101496.13;;;-1.08;100.00
13612;BME280;6877;51.436;6.774;2023-12-07T02:21:59;101503.56;;;-1.14;100.00
13612;BME280;6877;51.436;6.774;2023-12-07T02:24:33;101505.75;;;-1.24;100.00
13612;BME280;6877;51.436;6.774;2023-12-07T02:27:05;101509.97;;;-1.26;100.00
13612;BME280;6877;51.436;6.774;2023-12-07T02:29:31;101507.34;;;-1.27;100.00
13612;BME280;6877;51.436;6.774;2023-12-07T02:31:58;101502.06;;;-1.30;100.00
13612;BME280;6877;51.436;6.774;2023-12-07T02:34:29;101501.19;;;-1.31;100.00
13612;BME280;6877;51.436;6.774;2023-12-07T02:36:58;101499.19;;;-1.38;100.00
13612;BME280;6877;51.436;6.774;2023-12-07T02:39:25;101504.31;;;-1.38;100.00
13612;BME280;6877;51.436;6.774;2023-12-07T02:41:51;101506.34;;;-1.31;100.00
13612;BME280;6877;51.436;6.774;2023-12-07T02:44:25;101506.00;;;-1.18;100.00
13612;BME280;6877;51.436;6.774;2023-12-07T02:46:53;101507.97;;;-1.12;100.00
13612;BME280;6877;51.436;6.774;2023-12-07T02:49:20;101508.25;;;-1.04;100.00
13612;BME280;6877;51.436;6.774;2023-12-07T02:51:46;101506.84;;;-0.98;100.00
13612;BME280;6877;51.436;6.774;2023-12-07T02:54:13;101497.81;;;-0.88;100.00
13612;BME280;6877;51.436;6.774;2023-12-07T02:56:40;101498.31;;;-0.76;100.00
13612;BME280;6877;51.436;6.774;2023-12-07T02:59:06;101495.28;;;-0.65;100.00
13612;BME280;6877;51.436;6.774;2023-12-07T03:01:33;101497.38;;;-0.55;100.00
13612;BME280;6877;51.436;6.774;2023-12-07T03:03:59;101507.88;;;-0.49;100.00
13612;BME280;6877;51.436;6.774;2023-12-07T03:06:26;101503.81;;;-0.44;100.00
13612;BME280;6877;51.436;6.774;2023-12-07T03:08:52;101501.47;;;-0.38;100.00
13612;BME280;6877;51.436;6.774;2023-12-07T03:11:19;101493.91;;;-0.33;100.00
13612;BME280;6877;51.436;6.774;2023-12-07T03:13:50;101495.78;;;-0.29;100.00
13612;BME280;6877;51.436;6.774;2023-12-07T03:16:17;101501.91;;;-0.26;100.00
13612;BME280;6877;51.436;6.774;2023-12-07T03:18:43;101504.56;;;-0.24;100.00
13612;BME280;6877;51.436;6.774;2023-12-07T03:21:09;101502.81;;;-0.25;100.00
13612;BME280;6877;51.436;6.774;2023-12-07T03:23:36;101498.53;;;-0.25;100.00
13612;BME280;6877;51.436;6.774;2023-12-07T03:26:07;101500.28;;;-0.24;100.00
13612;BME280;6877;51.436;6.774;2023-12-07T03:28:34;101502.09;;;-0.21;100.00
13612;BME280;6877;51.436;6.774;2023-12-07T03:31:00;101497.00;;;-0.19;100.00
13612;BME280;6877;51.436;6.774;2023-12-07T03:33:27;101500.50;;;-0.17;100.00
13612;BME280;6877;51.436;6.774;2023-12-07T03:35:53;101501.34;;;-0.18;100.00
13612;BME280;6877;51.436;6.774;2023-12-07T03:38:20;101498.81;;;-0.17;100.00
13612;BME280;6877;51.436;6.774;2023-12-07T03:40:46;101508.34;;;-0.14;100.00
13612;BME280;6877;51.436;6.774;2023-12-07T03:43:14;101510.06;;;-0.15;100.00
13612;BME280;6877;51.436;6.774;2023-12-07T03:45:40;101509.19;;;-0.15;100.00
13612;BME280;6877;51.436;6.774;2023-12-07T03:48:07;101509.97;;;-0.16;100.00
13612;BME280;6877;51.436;6.774;2023-12-07T03:50:33;101511.78;;;-0.14;100.00
13612;BME280;6877;51.436;6.774;2023-12-07T03:52:59;101505.03;;;-0.12;100.00
13612;BME280;6877;51.436;6.774;2023-12-07T03:55:26;101505.88;;;-0.11;100.00
13612;BME280;6877;51.436;6.774;2023-12-07T03:57:52;101505.94;;;-0.10;100.00
13612;BME280;6877;51.436;6.774;2023-12-07T04:00:19;101509.75;;;0.00;100.00
13612;BME280;6877;51.436;6.774;2023-12-07T04:02:45;101507.44;;;0.08;100.00
13612;BME280;6877;51.436;6.774;2023-12-07T04:05:17;101511.00;;;0.11;100.00
13612;BME280;6877;51.436;6.774;2023-12-07T04:07:48;101512.03;;;0.16;100.00
13612;BME280;6877;51.436;6.774;2023-12-07T04:10:15;101508.75;;;0.20;100.00
13612;BME280;6877;51.436;6.774;2023-12-07T04:12:46;101505.22;;;0.18;100.00
13612;BME280;6877;51.436;6.774;2023-12-07T04:15:19;101500.09;;;0.18;100.00
13612;BME280;6877;51.436;6.774;2023-12-07T04:17:46;101506.91;;;0.16;100.00
13612;BME280;6877;51.436;6.774;2023-12-07T04:20:13;101503.50;;;0.17;100.00
13612;BME280;6877;51.436;6.774;2023-12-07T04:22:44;101510.38;;;0.18;100.00
13612;BME280;6877;51.436;6.774;2023-12-07T04:25:11;101503.59;;;0.20;100.00
13612;BME280;6877;51.436;6.774;2023-12-07T04:27:43;101501.84;;;0.19;100.00
13612;BME280;6877;51.436;6.774;2023-12-07T04:30:10;101513.78;;;0.17;100.00
13612;BME280;6877;51.436;6.774;2023-12-07T04:32:36;101515.53;;;0.18;100.00
13612;BME280;6877;51.436;6.774;2023-12-07T04:35:03;101519.03;;;0.20;100.00
13612;BME280;6877;51.436;6.774;2023-12-07T04:37:29;101526.13;;;0.26;100.00
13612;BME280;6877;51.436;6.774;2023-12-07T04:39:56;101516.09;;;0.34;100.00
13612;BME280;6877;51.436;6.774;2023-12-07T04:42:22;101527.44;;;0.39;100.00
13612;BME280;6877;51.436;6.774;2023-12-07T04:44:49;101525.00;;;0.43;100.00
13612;BME280;6877;51.436;6.774;2023-12-07T04:47:15;101525.88;;;0.44;100.00
13612;BME280;6877;51.436;6.774;2023-12-07T04:49:42;101524.31;;;0.48;100.00
13612;BME280;6877;51.436;6.774;2023-12-07T04:52:13;101529.56;;;0.51;100.00
13612;BME280;6877;51.436;6.774;2023-12-07T04:54:40;101519.41;;;0.55;100.00
13612;BME280;6877;51.436;6.774;2023-12-07T04:57:11;101525.59;;;0.60;100.00
13612;BME280;6877;51.436;6.774;2023-12-07T04:59:38;101529.94;;;0.61;100.00
13612;BME280;6877;51.436;6.774;2023-12-07T05:02:04;101527.47;;;0.64;100.00
13612;BME280;6877;51.436;6.774;2023-12-07T05:04:31;101525.81;;;0.66;100.00
13612;BME280;6877;51.436;6.774;2023-12-07T05:06:59;101532.72;;;0.67;100.00
13612;BME280;6877;51.436;6.774;2023-12-07T05:09:26;101538.84;;;0.71;100.00
13612;BME280;6877;51.436;6.774;2023-12-07T05:11:52;101536.38;;;0.74;100.00
13612;BME280;6877;51.436;6.774;2023-12-07T05:14:19;101535.50;;;0.74;100.00
13612;BME280;6877;51.436;6.774;2023-12-07T05:16:45;101546.72;;;0.76;100.00
13612;BME280;6877;51.436;6.774;2023-12-07T05:19:14;101544.22;;;0.77;100.00
13612;BME280;6877;51.436;6.774;2023-12-07T05:21:41;101536.50;;;0.79;100.00
13612;BME280;6877;51.436;6.774;2023-12-07T05:24:13;101540.03;;;0.81;100.00
13612;BME280;6877;51.436;6.774;2023-12-07T05:26:43;101543.53;;;0.83;100.00
13612;BME280;6877;51.436;6.774;2023-12-07T05:29:17;101544.44;;;0.85;100.00
13612;BME280;6877;51.436;6.774;2023-12-07T05:31:44;101539.38;;;0.86;100.00
13612;BME280;6877;51.436;6.774;2023-12-07T05:34:10;101539.38;;;0.86;100.00
13612;BME280;6877;51.436;6.774;2023-12-07T05:36:42;101546.22;;;0.86;100.00
13612;BME280;6877;51.436;6.774;2023-12-07T05:39:08;101545.28;;;0.84;100.00
13612;BME280;6877;51.436;6.774;2023-12-07T05:41:35;101549.72;;;0.88;100.00
13612;BME280;6877;51.436;6.774;2023-12-07T05:44:01;101546.44;;;0.92;100.00
13612;BME280;6877;51.436;6.774;2023-12-07T05:46:30;101534.41;;;0.92;100.00
13612;BME280;6877;51.436;6.774;2023-12-07T05:48:57;101530.25;;;0.96;100.00
13612;BME280;6877;51.436;6.774;2023-12-07T05:51:24;101526.94;;;1.00;100.00
13612;BME280;6877;51.436;6.774;2023-12-07T05:53:50;101532.09;;;1.00;100.00
13612;BME280;6877;51.436;6.774;2023-12-07T05:56:20;101528.59;;;0.98;100.00
13612;BME280;6877;51.436;6.774;2023-12-07T05:58:52;101523.44;;;0.98;100.00
13612;BME280;6877;51.436;6.774;2023-12-07T06:01:18;101521.66;;;0.97;100.00
13612;BME280;6877;51.436;6.774;2023-12-07T06:03:50;101528.50;;;0.95;100.00
13612;BME280;6877;51.436;6.774;2023-12-07T06:06:16;101526.72;;;0.94;100.00
13612;BME280;6877;51.436;6.774;2023-12-07T06:08:43;101520.75;;;0.95;100.00
13612;BME280;6877;51.436;6.774;2023-12-07T06:11:10;101515.59;;;0.95;100.00
13612;BME280;6877;51.436;6.774;2023-12-07T06:13:37;101513.91;;;0.96;100.00
13612;BME280;6877;51.436;6.774;2023-12-07T06:16:04;101514.66;;;0.93;100.00
13612;BME280;6877;51.436;6.774;2023-12-07T06:18:36;101509.50;;;0.93;100.00
13612;BME280;6877;51.436;6.774;2023-12-07T06:21:04;101508.53;;;0.89;100.00
13612;BME280;6877;51.436;6.774;2023-12-07T06:23:35;101514.53;;;0.88;100.00
13612;BME280;6877;51.436;6.774;2023-12-07T06:26:02;101506.69;;;0.85;100.00
13612;BME280;6877;51.436;6.774;2023-12-07T06:28:30;101507.47;;;0.83;100.00
13612;BME280;6877;51.436;6.774;2023-12-07T06:31:06;101507.47;;;0.83;100.00
13612;BME280;6877;51.436;6.774;2023-12-07T06:33:33;101502.22;;;0.80;100.00
13612;BME280;6877;51.436;6.774;2023-12-07T06:36:01;101498.69;;;0.78;100.00
13612;BME280;6877;51.436;6.774;2023-12-07T06:38:29;101502.75;;;0.69;100.00
13612;BME280;6877;51.436;6.774;2023-12-07T06:40:56;101508.59;;;0.65;100.00
13612;BME280;6877;51.436;6.774;2023-12-07T06:43:23;101510.28;;;0.65;100.00
13612;BME280;6877;51.436;6.774;2023-12-07T06:45:50;101502.53;;;0.63;100.00
13612;BME280;6877;51.436;6.774;2023-12-07T06:48:17;101508.59;;;0.65;100.00
13612;BME280;6877;51.436;6.774;2023-12-07T06:50:43;101506.09;;;0.67;100.00
13612;BME280;6877;51.436;6.774;2023-12-07T06:53:10;101508.47;;;0.62;100.00
13612;BME280;6877;51.436;6.774;2023-12-07T06:55:36;101507.56;;;0.60;100.00
13612;BME280;6877;51.436;6.774;2023-12-07T06:58:03;101509.84;;;0.51;100.00
13612;BME280;6877;51.436;6.774;2023-12-07T07:00:29;101507.63;;;0.38;100.00
13612;BME280;6877;51.436;6.774;2023-12-07T07:02:56;101505.56;;;0.28;100.00
13612;BME280;6877;51.436;6.774;2023-12-07T07:05:22;101500.16;;;0.20;100.00
13612;BME280;6877;51.436;6.774;2023-12-07T07:07:49;101505.97;;;0.14;100.00
13612;BME280;6877;51.436;6.774;2023-12-07T07:10:17;101505.97;;;0.14;100.00
13612;BME280;6877;51.436;6.774;2023-12-07T07:12:44;101507.59;;;0.12;100.00
13612;BME280;6877;51.436;6.774;2023-12-07T07:15:10;101508.31;;;0.08;100.00
13612;BME280;6877;51.436;6.774;2023-12-07T07:17:37;101508.09;;;0.02;100.00
13612;BME280;6877;51.436;6.774;2023-12-07T07:20:04;101507.31;;;0.05;100.00
13612;BME280;6877;51.436;6.774;2023-12-07T07:22:33;101504.91;;;0.09;100.00
13612;BME280;6877;51.436;6.774;2023-12-07T07:25:00;101506.69;;;0.10;100.00
13612;BME280;6877;51.436;6.774;2023-12-07T07:27:27;101501.63;;;0.13;100.00
13612;BME280;6877;51.436;6.774;2023-12-07T07:29:53;101499.22;;;0.18;100.00
13612;BME280;6877;51.436;6.774;2023-12-07T07:32:20;101492.44;;;0.20;100.00
13612;BME280;6877;51.436;6.774;2023-12-07T07:34:46;101494.13;;;0.19;100.00
13612;BME280;6877;51.436;6.774;2023-12-07T07:37:13;101495.78;;;0.17;100.00
13612;BME280;6877;51.436;6.774;2023-12-07T07:39:39;101505.13;;;0.15;100.00
13612;BME280;6877;51.436;6.774;2023-12-07T07:42:06;101500.69;;;0.11;100.00
13612;BME280;6877;51.436;6.774;2023-12-07T07:44:32;101504.09;;;0.10;100.00
13612;BME280;6877;51.436;6.774;2023-12-07T07:46:59;101501.53;;;0.10;100.00
13612;BME280;6877;51.436;6.774;2023-12-07T07:49:25;101501.53;;;0.10;100.00
13612;BME280;6877;51.436;6.774;2023-12-07T07:51:57;101503.28;;;0.11;100.00
13612;BME280;6877;51.436;6.774;2023-12-07T07:54:23;101494.72;;;0.12;100.00
13612;BME280;6877;51.436;6.774;2023-12-07T07:56:50;101504.25;;;0.15;100.00
13612;BME280;6877;51.436;6.774;2023-12-07T07:59:16;101502.50;;;0.14;100.00
13612;BME280;6877;51.436;6.774;2023-12-07T08:01:45;101502.50;;;0.14;100.00
13612;BME280;6877;51.436;6.774;2023-12-07T08:04:13;101492.25;;;0.15;100.00
13612;BME280;6877;51.436;6.774;2023-12-07T08:06:40;101496.59;;;0.16;100.00
13612;BME280;6877;51.436;6.774;2023-12-07T08:09:07;101499.31;;;0.21;100.00
13612;BME280;6877;51.436;6.774;2023-12-07T08:11:34;101504.66;;;0.26;100.00
13612;BME280;6877;51.436;6.774;2023-12-07T08:14:00;101510.69;;;0.26;100.00
13612;BME280;6877;51.436;6.774;2023-12-07T08:16:27;101515.88;;;0.28;100.00
13612;BME280;6877;51.436;6.774;2023-12-07T08:18:54;101518.75;;;0.37;100.00
13612;BME280;6877;51.436;6.774;2023-12-07T08:21:23;101517.59;;;0.53;100.00
13612;BME280;6877;51.436;6.774;2023-12-07T08:23:50;101528.22;;;0.62;100.00
13612;BME280;6877;51.436;6.774;2023-12-07T08:26:17;101522.94;;;0.57;100.00
13612;BME280;6877;51.436;6.774;2023-12-07T08:28:44;101521.94;;;0.54;100.00
13612;BME280;6877;51.436;6.774;2023-12-07T08:31:10;101511.53;;;0.51;100.00
13612;BME280;6877;51.436;6.774;2023-12-07T08:33:37;101517.69;;;0.56;100.00
13612;BME280;6877;51.436;6.774;2023-12-07T08:36:05;101519.56;;;0.60;100.00
13612;BME280;6877;51.436;6.774;2023-12-07T08:38:32;101518.91;;;0.65;100.00
13612;BME280;6877;51.436;6.774;2023-12-07T08:40:59;101518.22;;;0.71;100.00
13612;BME280;6877;51.436;6.774;2023-12-07T08:43:25;101526.22;;;0.79;100.00
13612;BME280;6877;51.436;6.774;2023-12-07T08:45:52;101528.19;;;0.86;100.00
13612;BME280;6877;51.436;6.774;2023-12-07T08:48:19;101525.91;;;0.95;100.00
13612;BME280;6877;51.436;6.774;2023-12-07T08:50:46;101540.28;;;1.41;100.00
13612;BME280;6877;51.436;6.774;2023-12-07T08:53:13;101534.41;;;2.04;100.00
13612;BME280;6877;51.436;6.774;2023-12-07T08:55:40;101537.44;;;2.51;100.00
13612;BME280;6877;51.436;6.774;2023-12-07T08:58:06;101532.31;;;2.84;100.00
13612;BME280;6877;51.436;6.774;2023-12-07T09:00:33;101532.00;;;3.07;100.00
13612;BME280;6877;51.436;6.774;2023-12-07T09:02:59;101533.34;;;2.91;100.00
13612;BME280;6877;51.436;6.774;2023-12-07T09:05:26;101526.75;;;2.70;100.00
13612;BME280;6877;51.436;6.774;2023-12-07T09:07:53;101532.63;;;2.63;100.00
13612;BME280;6877;51.436;6.774;2023-12-07T09:10:19;101524.69;;;2.55;100.00
13612;BME280;6877;51.436;6.774;2023-12-07T09:12:46;101528.22;;;2.61;100.00
13612;BME280;6877;51.436;6.774;2023-12-07T09:15:12;101525.75;;;2.32;100.00
13612;BME280;6877;51.436;6.774;2023-12-07T09:17:39;101523.66;;;2.19;100.00
13612;BME280;6877;51.436;6.774;2023-12-07T09:20:07;101520.75;;;2.08;100.00
13612;BME280;6877;51.436;6.774;2023-12-07T09:22:42;101523.47;;;2.13;100.00
13612;BME280;6877;51.436;6.774;2023-12-07T09:25:09;101532.09;;;2.43;100.00
13612;BME280;6877;51.436;6.774;2023-12-07T09:27:37;101526.69;;;2.67;100.00
13612;BME280;6877;51.436;6.774;2023-12-07T09:30:08;101533.91;;;3.14;100.00
13612;BME280;6877;51.436;6.774;2023-12-07T09:32:37;101536.72;;;3.61;100.00
13612;BME280;6877;51.436;6.774;2023-12-07T09:35:05;101532.91;;;3.84;100.00
13612;BME280;6877;51.436;6.774;2023-12-07T09:37:34;101518.94;;;3.76;100.00
13612;BME280;6877;51.436;6.774;2023-12-07T09:40:01;101514.56;;;3.34;100.00
13612;BME280;6877;51.436;6.774;2023-12-07T09:42:27;101512.22;;;3.09;100.00
13612;BME280;6877;51.436;6.774;2023-12-07T09:44:54;101515.19;;;2.89;100.00
13612;BME280;6877;51.436;6.774;2023-12-07T09:47:20;101519.19;;;3.47;100.00
13612;BME280;6877;51.436;6.774;2023-12-07T09:49:47;101520.06;;;4.31;100.00
13612;BME280;6877;51.436;6.774;2023-12-07T09:52:15;101507.34;;;5.48;100.00
13612;BME280;6877;51.436;6.774;2023-12-07T09:54:42;101515.22;;;7.08;100.00
13612;BME280;6877;51.436;6.774;2023-12-07T09:57:08;101517.78;;;8.81;100.00
13612;BME280;6877;51.436;6.774;2023-12-07T09:59:39;101514.03;;;10.29;100.00
13612;BME280;6877;51.436;6.774;2023-12-07T10:02:06;101519.16;;;11.55;100.00
13612;BME280;6877;51.436;6.774;2023-12-07T10:04:34;101513.38;;;12.69;100.00
13612;BME280;6877;51.436;6.774;2023-12-07T10:07:00;101496.28;;;12.98;100.00
13612;BME280;6877;51.436;6.774;2023-12-07T10:09:27;101498.50;;;13.26;100.00
13612;BME280;6877;51.436;6.774;2023-12-07T10:12:04;101493.19;;;13.29;100.00
13612;BME280;6877;51.436;6.774;2023-12-07T10:14:31;101491.03;;;13.49;100.00
13612;BME280;6877;51.436;6.774;2023-12-07T10:16:59;101492.31;;;13.27;100.00
13612;BME280;6877;51.436;6.774;2023-12-07T10:19:26;101484.78;;;13.55;100.00
13612;BME280;6877;51.436;6.774;2023-12-07T10:21:54;101482.72;;;13.22;100.00
13612;BME280;6877;51.436;6.774;2023-12-07T10:24:25;101473.09;;;12.12;100.00
13612;BME280;6877;51.436;6.774;2023-12-07T10:26:53;101478.44;;;9.91;100.00
13612;BME280;6877;51.436;6.774;2023-12-07T10:29:23;101466.03;;;7.50;100.00
13612;BME280;6877;51.436;6.774;2023-12-07T10:31:49;101440.38;;;5.91;100.00
13612;BME280;6877;51.436;6.774;2023-12-07T10:34:21;101449.22;;;4.79;100.00
13612;BME280;6877;51.436;6.774;2023-12-07T10:36:47;101438.69;;;4.20;100.00
13612;BME280;6877;51.436;6.774;2023-12-07T10:39:15;101442.06;;;3.72;100.00
13612;BME280;6877;51.436;6.774;2023-12-07T10:41:43;101437.88;;;3.38;100.00
13612;BME280;6877;51.436;6.774;2023-12-07T10:44:11;101436.47;;;3.14;100.00
13612;BME280;6877;51.436;6.774;2023-12-07T10:46:42;101414.63;;;3.00;100.00
13612;BME280;6877;51.436;6.774;2023-12-07T10:49:15;101411.78;;;2.89;100.00
13612;BME280;6877;51.436;6.774;2023-12-07T10:51:51;101402.16;;;2.84;100.00
13612;BME280;6877;51.436;6.774;2023-12-07T10:54:26;101405.59;;;2.83;100.00
13612;BME280;6877;51.436;6.774;2023-12-07T10:56:55;101411.63;;;2.83;100.00
13612;BME280;6877;51.436;6.774;2023-12-07T10:59:22;101410.88;;;2.87;100.00
13612;BME280;6877;51.436;6.774;2023-12-07T11:01:51;101405.16;;;3.00;100.00
13612;BME280;6877;51.436;6.774;2023-12-07T11:04:23;101390.59;;;3.06;100.00
13612;BME280;6877;51.436;6.774;2023-12-07T11:06:50;101390.44;;;2.98;100.00
13612;BME280;6877;51.436;6.774;2023-12-07T11:09:25;101382.59;;;2.93;100.00
13612;BME280;6877;51.436;6.774;2023-12-07T11:12:00;101383.59;;;3.00;100.00
13612;BME280;6877;51.436;6.774;2023-12-07T11:14:34;101384.53;;;3.04;100.00
13612;BME280;6877;51.436;6.774;2023-12-07T11:17:03;101368.16;;;3.03;100.00
13612;BME280;6877;51.436;6.774;2023-12-07T11:21:59;101359.53;;;3.04;100.00
13612;BME280;6877;51.436;6.774;2023-12-07T11:24:26;101359.53;;;3.04;100.00
13612;BME280;6877;51.436;6.774;2023-12-07T11:26:56;101357.91;;;3.08;100.00
13612;BME280;6877;51.436;6.774;2023-12-07T11:29:28;101351.94;;;3.12;100.00
13612;BME280;6877;51.436;6.774;2023-12-07T11:31:56;101343.28;;;3.10;100.00
13612;BME280;6877;51.436;6.774;2023-12-07T11:34:42;101347.75;;;3.17;100.00
13612;BME280;6877;51.436;6.774;2023-12-07T11:37:10;101334.75;;;3.14;100.00
13612;BME280;6877;51.436;6.774;2023-12-07T11:39:39;101332.16;;;3.14;100.00
13612;BME280;6877;51.436;6.774;2023-12-07T11:42:10;101325.31;;;3.16;100.00
13612;BME280;6877;51.436;6.774;2023-12-07T11:44:38;101319.38;;;3.20;100.00
13612;BME280;6877;51.436;6.774;2023-12-07T11:47:15;101316.78;;;3.21;100.00
13612;BME280;6877;51.436;6.774;2023-12-07T11:49:43;101318.63;;;3.25;100.00
13612;BME280;6877;51.436;6.774;2023-12-07T11:52:14;101316.69;;;3.15;100.00
13612;BME280;6877;51.436;6.774;2023-12-07T11:54:46;101311.41;;;3.11;100.00
13612;BME280;6877;51.436;6.774;2023-12-07T11:57:14;101301.00;;;3.08;100.00
13612;BME280;6877;51.436;6.774;2023-12-07T11:59:45;101307.03;;;3.07;100.00
13612;BME280;6877;51.436;6.774;2023-12-07T12:02:14;101300.16;;;3.09;100.00
13612;BME280;6877;51.436;6.774;2023-12-07T12:04:41;101295.75;;;3.05;100.00
13612;BME280;6877;51.436;6.774;2023-12-07T12:07:08;101292.19;;;2.99;100.00
13612;BME280;6877;51.436;6.774;2023-12-07T12:09:39;101299.94;;;2.99;100.00
13612;BME280;6877;51.436;6.774;2023-12-07T12:12:06;101301.66;;;2.97;100.00
13612;BME280;6877;51.436;6.774;2023-12-07T12:14:33;101303.25;;;2.92;100.00
13612;BME280;6877;51.436;6.774;2023-12-07T12:17:00;101290.34;;;2.92;100.00
13612;BME280;6877;51.436;6.774;2023-12-07T12:19:26;101294.78;;;2.99;100.00
13612;BME280;6877;51.436;6.774;2023-12-07T12:21:54;101291.50;;;3.07;100.00
13612;BME280;6877;51.436;6.774;2023-12-07T12:24:20;101298.34;;;3.05;100.00
13612;BME280;6877;51.436;6.774;2023-12-07T12:26:47;101291.41;;;3.02;100.00
13612;BME280;6877;51.436;6.774;2023-12-07T12:29:14;101295.56;;;2.94;100.00
13612;BME280;6877;51.436;6.774;2023-12-07T12:31:41;101285.91;;;2.87;100.00
13612;BME280;6877;51.436;6.774;2023-12-07T12:34:07;101278.06;;;2.84;100.00
13612;BME280;6877;51.436;6.774;2023-12-07T12:36:38;101271.09;;;2.79;100.00
13612;BME280;6877;51.436;6.774;2023-12-07T12:39:10;101266.81;;;2.80;100.00
13612;BME280;6877;51.436;6.774;2023-12-07T12:41:37;101275.53;;;2.85;100.00
13612;BME280;6877;51.436;6.774;2023-12-07T12:44:05;101262.56;;;2.82;100.00
13612;BME280;6877;51.436;6.774;2023-12-07T12:46:33;101253.94;;;2.83;100.00
13612;BME280;6877;51.436;6.774;2023-12-07T12:49:05;101253.16;;;2.86;100.00
13612;BME280;6877;51.436;6.774;2023-12-07T12:51:32;101245.38;;;2.86;100.00
13612;BME280;6877;51.436;6.774;2023-12-07T12:54:04;101238.56;;;2.88;100.00
13612;BME280;6877;51.436;6.774;2023-12-07T12:56:30;101243.72;;;2.88;100.00
13612;BME280;6877;51.436;6.774;2023-12-07T12:58:57;101235.16;;;2.90;100.00
13612;BME280;6877;51.436;6.774;2023-12-07T13:01:23;101225.63;;;2.88;100.00
13612;BME280;6877;51.436;6.774;2023-12-07T13:03:50;101227.22;;;2.83;100.00